Florence, Mississippi
Current Conditions -  °F | °C
As of 1:54 PM on Tuesday 21 Oct 2014 (Local Time) from KJAN Reporting Station
Clear Clear  
Wind Chill: 77°   Ceiling: Unl
Heat Index: 78°   Visibility: 10mi
Dew Point: 53°   Wind: 5mph
Humidity: 43%   Direction: 280°W
Pressure: 30.04"   Gusts: NA
Location:  32.15°N, 90.13°W
Report Text: KJAN 211854Z 28004KT 10SM CLR 25/12 A3004 RMK AO2 SLP170 T02500117
Loading
Personal Weather Stations






























Interactive Weather Map
Tropical Storm Tracking
New forecast layout! Learn more

10-Day Weather Forecast

Advertisements
Track Severe Weather on mobile